Time;durP1;ratioP1;P1;durP2;ratioP2;P2;SDS_P1;SDS_P2;PMS_P1;PMS_P2;Temp;Humidity;BMP_temperature;BMP_pressure;BME280_temperature;BME280_humidity;BME280_pressure;Samples;Min_cycle;Max_cycle;Signal;HPM_P1;HPM_P2
2022/03/04 00:00:21;;;;;;;5.13;1.42;;;23.80;99.90;;;;;;5106677;28;20384;-89
2022/03/04 00:02:48;;;;;;;5.65;1.45;;;23.80;99.90;;;;;;5100648;28;20384;-92
2022/03/04 00:05:15;;;;;;;4.25;1.30;;;23.80;99.90;;;;;;5099676;28;20756;-90
2022/03/04 00:07:46;;;;;;;7.00;1.50;;;23.90;99.90;;;;;;5102371;28;20498;-89
2022/03/04 00:10:14;;;;;;;4.40;1.13;;;24.00;99.90;;;;;;5101978;28;20710;-90
2022/03/04 00:12:45;;;;;;;4.82;1.10;;;24.10;99.90;;;;;;5104009;28;20365;-88
2022/03/04 00:15:14;;;;;;;4.10;1.10;;;24.20;99.90;;;;;;5050576;28;20431;-89
2022/03/04 00:17:45;;;;;;;5.93;1.27;;;24.50;99.90;;;;;;5081426;28;20378;-88
2022/03/04 00:20:22;;;;;;;5.60;1.35;;;24.80;99.90;;;;;;5063186;28;20370;-90
2022/03/04 00:22:54;;;;;;;5.40;1.23;;;24.80;99.90;;;;;;5044274;28;20374;-89
2022/03/04 00:25:21;;;;;;;5.47;1.20;;;24.90;99.90;;;;;;5075328;28;20394;-88
2022/03/04 00:27:48;;;;;;;4.78;1.20;;;25.00;99.90;;;;;;5058753;28;20451;-89
2022/03/04 00:30:15;;;;;;;6.97;1.50;;;25.30;99.90;;;;;;5075270;28;20981;-87
2022/03/04 00:32:49;;;;;;;5.40;1.47;;;25.50;99.90;;;;;;5074908;28;20461;-92
2022/03/04 00:35:16;;;;;;;4.47;1.20;;;25.70;99.90;;;;;;5058014;28;20378;-94
2022/03/04 00:37:46;;;;;;;4.25;1.15;;;25.80;99.90;;;;;;5056946;28;20382;-91
2022/03/04 00:40:14;;;;;;;7.63;1.30;;;25.80;99.90;;;;;;5058692;28;20453;-92
2022/03/04 00:42:48;;;;;;;5.88;1.20;;;26.00;99.90;;;;;;5039767;28;20381;-93
2022/03/04 00:45:22;;;;;;;5.63;1.13;;;26.20;99.90;;;;;;4990134;28;20369;-93
2022/03/04 00:47:53;;;;;;;4.90;1.30;;;26.20;99.90;;;;;;5038855;28;20405;-93
2022/03/04 00:50:33;;;;;;;4.43;1.20;;;26.20;99.90;;;;;;5019945;28;20469;-94
2022/03/04 00:53:02;;;;;;;4.65;1.30;;;26.40;99.90;;;;;;5040554;28;20390;-92
2022/03/04 00:55:29;;;;;;;4.97;1.20;;;26.60;99.90;;;;;;5039539;28;20382;-90
2022/03/04 00:57:58;;;;;;;3.83;1.00;;;26.60;99.90;;;;;;5041574;28;20496;-91
2022/03/04 01:00:28;;;;;;;5.22;1.23;;;26.50;99.90;;;;;;5038799;28;20443;-94
2022/03/04 01:02:55;;;;;;;5.10;1.00;;;26.50;99.90;;;;;;5039171;28;20394;-91
2022/03/04 01:05:22;;;;;;;4.13;1.00;;;26.40;99.90;;;;;;5038283;28;20432;-93
2022/03/04 01:07:51;;;;;;;4.15;1.10;;;26.40;99.90;;;;;;5053999;28;20872;-93
2022/03/04 01:10:18;;;;;;;4.50;0.90;;;26.50;99.90;;;;;;5052810;28;20384;-92
2022/03/04 01:12:46;;;;;;;2.65;1.00;;;26.70;99.90;;;;;;5034570;28;20380;-92
2022/03/04 01:15:13;;;;;;;2.60;0.75;;;27.10;99.90;;;;;;5035160;28;20478;-94
2022/03/04 01:17:40;;;;;;;3.45;0.88;;;27.60;99.90;;;;;;5034744;28;20926;-91
2022/03/04 01:20:08;;;;;;;2.75;0.90;;;27.80;99.90;;;;;;5033439;28;20391;-89
2022/03/04 01:22:35;;;;;;;3.10;0.77;;;27.90;99.90;;;;;;5033476;28;20376;-92
2022/03/04 01:25:03;;;;;;;3.65;1.05;;;28.00;99.90;;;;;;5050194;28;20416;-91
2022/03/04 01:27:30;;;;;;;4.07;1.10;;;28.40;99.90;;;;;;5067347;28;20889;-90
2022/03/04 01:29:57;;;;;;;4.43;1.20;;;28.40;99.90;;;;;;5070000;28;20397;-91
2022/03/04 01:32:25;;;;;;;3.78;1.20;;;28.60;99.90;;;;;;5072115;28;20394;-91
2022/03/04 01:34:52;;;;;;;2.30;0.80;;;28.70;99.90;;;;;;5071692;28;20378;-89
2022/03/04 01:37:19;;;;;;;1.60;0.70;;;27.90;99.90;;;;;;5071546;28;20459;-91
2022/03/04 01:39:46;;;;;;;2.35;0.70;;;27.20;99.90;;;;;;5071495;28;20378;-91
2022/03/04 01:42:14;;;;;;;2.45;0.60;;;26.60;99.90;;;;;;5070116;28;20858;-90
2022/03/04 01:44:42;;;;;;;2.92;0.77;;;26.20;99.90;;;;;;5073321;28;20731;-90
2022/03/04 01:47:09;;;;;;;1.83;0.68;;;26.40;99.90;;;;;;5071082;28;20381;-89
2022/03/04 01:49:40;;;;;;;3.70;0.80;;;26.70;99.90;;;;;;5072388;28;20377;-91
2022/03/04 01:52:08;;;;;;;2.95;0.80;;;27.10;99.90;;;;;;5070347;28;20382;-91
2022/03/04 01:54:36;;;;;;;2.00;0.70;;;27.80;99.90;;;;;;5089622;28;20396;-90
2022/03/04 01:57:06;;;;;;;1.83;0.60;;;27.90;99.90;;;;;;5093910;28;20464;-91
2022/03/04 01:59:33;;;;;;;0.80;0.45;;;27.70;99.90;;;;;;5074933;28;20414;-91
2022/03/04 02:02:01;;;;;;;1.95;0.60;;;27.20;99.90;;;;;;5091162;28;20376;-89
2022/03/04 02:04:28;;;;;;;1.38;0.70;;;26.90;99.90;;;;;;5090430;28;20384;-91
2022/03/04 02:06:55;;;;;;;1.83;0.70;;;26.70;99.90;;;;;;5088941;28;20362;-91
2022/03/04 02:09:22;;;;;;;2.22;0.60;;;26.60;99.90;;;;;;5094056;28;20403;-89
2022/03/04 02:11:49;;;;;;;2.60;0.80;;;26.60;99.90;;;;;;5104211;28;20383;-90
2022/03/04 02:14:17;;;;;;;1.85;0.80;;;26.60;99.90;;;;;;5095362;28;20867;-89
2022/03/04 02:16:52;;;;;;;3.10;0.80;;;26.90;99.90;;;;;;5090010;28;20382;-94
2022/03/04 02:19:20;;;;;;;1.90;0.60;;;27.50;99.90;;;;;;5090891;28;20379;-91
2022/03/04 02:22:02;;;;;;;2.13;0.70;;;27.50;99.90;;;;;;5092995;28;20373;-91
2022/03/04 02:24:31;;;;;;;1.65;0.73;;;27.40;99.90;;;;;;5091101;28;20774;-89
2022/03/04 02:27:03;;;;;;;2.08;0.82;;;27.80;99.90;;;;;;5088275;28;20383;-91
2022/03/04 02:29:31;;;;;;;1.92;0.68;;;28.70;99.90;;;;;;5090648;28;20846;-89
2022/03/04 02:32:01;;;;;;;2.50;0.60;;;29.70;99.90;;;;;;5088605;28;20374;-89
2022/03/04 02:34:29;;;;;;;1.20;0.50;;;30.30;99.90;;;;;;5089788;28;20372;-89
2022/03/04 02:36:57;;;;;;;2.17;0.60;;;31.00;99.90;;;;;;5089512;28;20852;-90
2022/03/04 02:39:24;;;;;;;0.70;0.40;;;31.20;99.90;;;;;;5088371;28;20380;-91
2022/03/04 02:41:51;;;;;;;1.13;0.50;;;30.30;99.50;;;;;;5088344;28;20402;-90
2022/03/04 02:44:18;;;;;;;1.45;0.60;;;29.50;99.90;;;;;;5088701;28;20419;-89
2022/03/04 02:46:46;;;;;;;1.77;0.50;;;29.20;99.90;;;;;;5089860;28;20750;-91
2022/03/04 02:49:13;;;;;;;1.27;0.47;;;28.80;99.90;;;;;;5088299;28;20495;-90
2022/03/04 02:51:40;;;;;;;1.55;0.50;;;28.60;99.90;;;;;;5088212;28;20396;-91
2022/03/04 02:54:08;;;;;;;1.48;0.47;;;28.50;99.90;;;;;;5089918;28;20423;-89
2022/03/04 02:56:35;;;;;;;1.92;0.50;;;28.40;99.90;;;;;;5092165;28;20459;-89
2022/03/04 02:59:02;;;;;;;1.55;0.60;;;28.60;99.90;;;;;;5090971;28;20376;-91
2022/03/04 03:01:29;;;;;;;1.63;0.60;;;29.20;99.90;;;;;;5090097;28;20875;-92
2022/03/04 03:03:56;;;;;;;1.98;0.68;;;29.40;99.90;;;;;;5091301;28;20937;-90
2022/03/04 03:06:23;;;;;;;2.57;0.70;;;29.50;99.90;;;;;;5089754;28;20396;-91
2022/03/04 03:08:50;;;;;;;3.25;0.80;;;29.10;99.90;;;;;;5088786;28;20400;-90
2022/03/04 03:11:17;;;;;;;3.47;0.70;;;28.60;99.90;;;;;;5089855;28;20369;-92
2022/03/04 03:13:44;;;;;;;1.60;0.60;;;28.40;99.90;;;;;;5087757;28;20381;-91
2022/03/04 03:16:11;;;;;;;3.08;0.77;;;28.70;99.90;;;;;;5089553;28;20433;-91
2022/03/04 03:18:38;;;;;;;0.90;0.50;;;30.00;99.90;;;;;;5087882;28;20505;-92
2022/03/04 03:21:05;;;;;;;1.63;0.60;;;31.20;99.90;;;;;;5087674;28;20376;-92
2022/03/04 03:23:32;;;;;;;1.38;0.50;;;32.00;97.20;;;;;;5088045;28;20381;-90
2022/03/04 03:25:59;;;;;;;1.58;0.65;;;32.50;96.00;;;;;;5088812;28;20467;-91
2022/03/04 03:28:26;;;;;;;2.65;0.80;;;32.20;93.30;;;;;;5089031;28;20392;-90
2022/03/04 03:30:53;;;;;;;2.97;0.90;;;31.20;94.60;;;;;;5087744;28;20868;-91
2022/03/04 03:33:22;;;;;;;1.75;0.70;;;29.90;99.90;;;;;;5088961;28;20372;-91
2022/03/04 03:35:54;;;;;;;2.45;0.90;;;28.40;99.90;;;;;;5089350;28;20380;-90
2022/03/04 03:38:22;;;;;;;3.42;0.90;;;27.40;99.90;;;;;;5088328;28;20372;-90
2022/03/04 03:40:50;;;;;;;2.17;0.77;;;26.70;99.90;;;;;;5092017;28;20381;-94
2022/03/04 03:43:17;;;;;;;2.63;0.80;;;26.20;99.90;;;;;;5094148;28;20371;-90
2022/03/04 03:45:44;;;;;;;3.28;0.80;;;25.80;99.90;;;;;;5093649;28;20455;-91
2022/03/04 03:48:11;;;;;;;2.03;1.00;;;25.80;99.90;;;;;;5095113;28;20400;-92
2022/03/04 03:50:38;;;;;;;3.53;1.00;;;25.60;99.90;;;;;;5095810;28;20543;-91
2022/03/04 03:53:06;;;;;;;1.77;0.80;;;25.60;99.90;;;;;;5096545;28;20895;-89
2022/03/04 03:55:39;;;;;;;4.43;1.10;;;25.70;99.90;;;;;;5091998;28;20389;-91
2022/03/04 03:58:06;;;;;;;2.78;0.90;;;25.90;99.90;;;;;;5096647;28;20377;-91
2022/03/04 04:00:34;;;;;;;2.78;0.90;;;26.00;99.90;;;;;;5090986;28;20384;-92
2022/03/04 04:03:02;;;;;;;1.90;0.77;;;26.00;99.90;;;;;;5091042;28;20419;-93
2022/03/04 04:05:31;;;;;;;2.83;0.60;;;25.80;99.90;;;;;;5092603;28;20461;-93
2022/03/04 04:07:58;;;;;;;2.33;0.68;;;25.40;99.90;;;;;;5093127;28;20428;-91
2022/03/04 04:10:25;;;;;;;1.10;0.70;;;25.20;99.90;;;;;;5093788;28;20442;-94
2022/03/04 04:12:52;;;;;;;2.45;0.80;;;25.00;99.90;;;;;;5092788;28;20848;-95
2022/03/04 04:15:19;;;;;;;4.35;0.80;;;25.10;99.90;;;;;;5091303;28;20387;-92
2022/03/04 04:17:49;;;;;;;2.07;0.70;;;25.20;99.90;;;;;;5090361;28;20389;-92
2022/03/04 04:20:16;;;;;;;3.38;0.77;;;25.80;99.90;;;;;;5091286;28;20376;-89
2022/03/04 04:22:43;;;;;;;2.30;0.80;;;26.30;99.90;;;;;;5091309;28;20890;-91
2022/03/04 04:25:10;;;;;;;1.92;0.65;;;26.40;99.90;;;;;;5091532;28;20840;-91
2022/03/04 04:27:37;;;;;;;2.73;0.70;;;26.40;99.90;;;;;;5091605;28;20430;-92
2022/03/04 04:30:05;;;;;;;1.80;0.75;;;26.30;99.90;;;;;;5091703;28;20380;-91
2022/03/04 04:32:32;;;;;;;2.67;1.00;;;26.40;99.90;;;;;;5090921;28;20380;-90
2022/03/04 04:34:59;;;;;;;2.17;0.90;;;26.60;99.90;;;;;;5092111;28;20870;-91
2022/03/04 04:37:26;;;;;;;2.67;0.90;;;26.90;99.90;;;;;;5090805;28;20380;-91
2022/03/04 04:39:53;;;;;;;3.13;0.82;;;27.00;99.90;;;;;;5090931;28;20365;-91
2022/03/04 04:42:20;;;;;;;3.08;0.80;;;27.30;99.90;;;;;;5092183;28;20903;-91
2022/03/04 04:44:47;;;;;;;2.80;0.90;;;27.50;99.90;;;;;;5083867;28;20372;-91
2022/03/04 04:47:14;;;;;;;3.00;0.93;;;27.50;99.90;;;;;;5092321;28;20383;-90
2022/03/04 04:49:41;;;;;;;4.70;1.00;;;27.40;99.90;;;;;;5089892;28;20392;-91
2022/03/04 04:52:09;;;;;;;3.53;0.90;;;27.30;99.90;;;;;;5090476;28;20387;-90
2022/03/04 04:54:37;;;;;;;2.50;0.80;;;27.20;99.90;;;;;;5091283;28;20404;-91
2022/03/04 04:57:04;;;;;;;3.15;0.90;;;28.00;99.90;;;;;;5091896;28;20398;-91
2022/03/04 04:59:31;;;;;;;1.73;0.70;;;29.20;99.90;;;;;;5091933;28;20377;-91
2022/03/04 05:01:58;;;;;;;3.15;0.70;;;29.50;99.90;;;;;;5090484;28;20388;-92
2022/03/04 05:04:26;;;;;;;3.93;0.60;;;29.20;99.90;;;;;;5091122;28;20899;-91
2022/03/04 05:06:53;;;;;;;2.47;0.87;;;29.40;99.90;;;;;;5090419;28;20433;-92
2022/03/04 05:09:20;;;;;;;3.65;0.80;;;29.20;99.90;;;;;;5090019;28;20428;-92
2022/03/04 05:11:47;;;;;;;2.58;0.77;;;28.90;99.90;;;;;;5090462;28;20859;-93
2022/03/04 05:14:14;;;;;;;2.17;0.70;;;28.40;99.90;;;;;;5090538;28;20455;-91
2022/03/04 05:16:41;;;;;;;2.65;0.80;;;28.10;99.90;;;;;;5089780;28;20464;-91
2022/03/04 05:19:08;;;;;;;4.60;0.80;;;27.90;99.90;;;;;;5091325;28;20543;-92
2022/03/04 05:21:35;;;;;;;2.78;0.60;;;27.70;99.90;;;;;;5091850;28;20365;-91
2022/03/04 05:24:02;;;;;;;2.00;0.68;;;27.40;99.90;;;;;;5091875;28;20411;-92
2022/03/04 05:26:32;;;;;;;1.40;0.60;;;26.90;99.90;;;;;;5089700;28;20808;-91
2022/03/04 05:29:01;;;;;;;2.85;0.80;;;26.60;99.90;;;;;;5090925;28;20493;-91
2022/03/04 05:31:29;;;;;;;1.97;0.80;;;26.30;99.90;;;;;;5090665;28;20725;-86
2022/03/04 05:33:56;;;;;;;1.65;0.70;;;26.10;99.90;;;;;;5090393;28;20387;-88
2022/03/04 05:36:23;;;;;;;1.92;0.60;;;26.40;99.90;;;;;;5090332;28;20371;-88
2022/03/04 05:38:50;;;;;;;1.17;0.40;;;27.30;99.90;;;;;;5090354;28;20372;-88
2022/03/04 05:41:18;;;;;;;1.25;0.60;;;27.70;99.90;;;;;;5090141;28;20431;-85
2022/03/04 05:43:46;;;;;;;1.00;0.50;;;28.30;99.90;;;;;;5090518;28;20459;-88
2022/03/04 05:46:14;;;;;;;1.77;0.52;;;29.10;99.90;;;;;;5091718;28;21002;-87
2022/03/04 05:48:41;;;;;;;1.13;0.60;;;29.30;99.90;;;;;;5091109;28;20435;-85
2022/03/04 05:51:09;;;;;;;1.85;0.70;;;29.90;99.90;;;;;;5091527;28;20383;-84
2022/03/04 05:53:36;;;;;;;1.27;0.60;;;30.30;99.90;;;;;;5090855;28;20392;-87
2022/03/04 05:56:05;;;;;;;2.60;0.70;;;30.70;99.90;;;;;;5091251;28;20371;-87
2022/03/04 05:58:33;;;;;;;1.75;0.60;;;31.40;97.70;;;;;;5090436;28;20380;-87
2022/03/04 06:01:02;;;;;;;1.50;0.50;;;31.80;96.20;;;;;;5090074;28;20408;-85
2022/03/04 06:03:29;;;;;;;1.02;0.50;;;31.80;95.60;;;;;;5089777;28;20856;-87
2022/03/04 06:05:56;;;;;;;1.48;0.60;;;32.00;96.80;;;;;;5089955;28;20788;-86
2022/03/04 06:08:23;;;;;;;1.55;0.60;;;31.40;98.40;;;;;;5089739;28;20395;-88
2022/03/04 06:10:50;;;;;;;1.52;0.70;;;30.10;99.90;;;;;;5088520;28;20901;-87
2022/03/04 06:13:17;;;;;;;1.42;0.60;;;28.60;99.90;;;;;;5089952;28;20844;-86
2022/03/04 06:15:44;;;;;;;2.20;0.77;;;27.80;99.90;;;;;;5090401;28;20376;-86
2022/03/04 06:18:11;;;;;;;2.43;0.80;;;27.20;99.90;;;;;;5090195;28;20369;-86
2022/03/04 06:20:38;;;;;;;3.78;1.10;;;26.70;99.90;;;;;;5090107;28;20948;-89
2022/03/04 06:23:05;;;;;;;3.30;1.30;;;26.40;99.90;;;;;;5089891;28;20465;-86
2022/03/04 06:25:32;;;;;;;4.88;1.60;;;26.20;99.90;;;;;;5089329;28;20911;-87
2022/03/04 06:28:02;;;;;;;3.87;1.60;;;26.10;99.90;;;;;;5089421;28;20400;-89
2022/03/04 06:30:34;;;;;;;5.03;1.70;;;26.00;99.90;;;;;;5089650;28;20909;-89
2022/03/04 06:35:46;;;;;;;5.50;1.98;;;25.90;99.90;;;;;;5092522;28;20398;-85
2022/03/04 06:38:14;;;;;;;4.95;1.70;;;25.80;99.90;;;;;;5089739;28;20376;-86
2022/03/04 06:40:41;;;;;;;4.38;1.38;;;25.70;99.90;;;;;;5089627;28;20898;-91
2022/03/04 06:43:09;;;;;;;5.28;1.40;;;25.50;99.90;;;;;;5089415;28;20369;-89
2022/03/04 06:45:38;;;;;;;5.38;1.75;;;25.30;99.90;;;;;;5088034;28;20456;-87
2022/03/04 06:48:05;;;;;;;6.43;2.80;;;25.10;99.90;;;;;;5089072;28;20393;-87
2022/03/04 06:50:32;;;;;;;6.85;2.80;;;25.00;99.90;;;;;;5089809;28;20459;-89
2022/03/04 06:52:59;;;;;;;5.93;1.70;;;25.00;99.90;;;;;;5088989;28;20387;-87
2022/03/04 06:55:26;;;;;;;5.30;1.50;;;24.90;99.90;;;;;;5089256;28;20380;-89
2022/03/04 06:57:54;;;;;;;5.20;1.35;;;24.90;99.90;;;;;;5089210;28;20373;-85
2022/03/04 07:00:22;;;;;;;3.10;1.20;;;24.80;99.90;;;;;;5089754;28;20422;-86
2022/03/04 07:02:49;;;;;;;3.88;1.10;;;24.90;99.90;;;;;;5089148;28;20406;-86
2022/03/04 07:05:16;;;;;;;3.33;1.10;;;24.90;99.90;;;;;;5089121;28;20459;-88
2022/03/04 07:07:43;;;;;;;4.68;1.17;;;24.80;99.90;;;;;;5091502;28;20404;-88
2022/03/04 07:10:10;;;;;;;3.45;0.98;;;24.70;99.90;;;;;;5089501;28;20455;-90
2022/03/04 07:12:38;;;;;;;4.75;1.20;;;24.70;99.90;;;;;;5090257;28;20390;-88
2022/03/04 07:15:05;;;;;;;2.13;0.80;;;24.70;99.90;;;;;;5093349;28;20476;-90
2022/03/04 07:17:32;;;;;;;2.13;0.80;;;24.60;99.90;;;;;;5091889;28;20419;-90
2022/03/04 07:20:00;;;;;;;2.28;0.90;;;24.50;99.90;;;;;;5093205;28;20878;-93
2022/03/04 07:22:26;;;;;;;2.53;0.90;;;24.40;99.90;;;;;;5093370;28;20412;-90
2022/03/04 07:24:53;;;;;;;3.08;0.80;;;24.40;99.90;;;;;;5093462;28;20376;-91
2022/03/04 07:27:20;;;;;;;3.03;0.88;;;24.60;99.90;;;;;;5092613;28;20455;-89
2022/03/04 07:29:47;;;;;;;1.17;0.70;;;25.00;99.90;;;;;;5093225;28;20388;-92
2022/03/04 07:32:14;;;;;;;3.13;0.63;;;25.60;99.90;;;;;;5092836;28;20466;-94
2022/03/04 07:34:41;;;;;;;2.75;0.80;;;26.40;99.90;;;;;;5092632;28;20505;-92
2022/03/04 07:37:08;;;;;;;3.45;0.90;;;27.00;99.90;;;;;;5092348;28;20368;-89
2022/03/04 07:39:35;;;;;;;2.87;0.73;;;27.50;99.90;;;;;;5092634;28;20377;-90
2022/03/04 07:42:04;;;;;;;3.28;0.93;;;27.70;99.90;;;;;;5093401;28;20852;-89
2022/03/04 07:44:31;;;;;;;1.85;0.70;;;27.30;99.90;;;;;;5092768;28;20373;-88
2022/03/04 07:46:58;;;;;;;2.20;0.73;;;26.70;99.90;;;;;;5092369;28;20400;-88
2022/03/04 07:49:25;;;;;;;2.45;1.00;;;26.10;99.90;;;;;;5092709;28;20495;-88
2022/03/04 07:51:51;;;;;;;4.70;1.00;;;25.50;99.90;;;;;;5093065;28;20365;-90
2022/03/04 07:54:18;;;;;;;2.35;0.90;;;25.10;99.90;;;;;;5091974;28;20858;-90
2022/03/04 07:56:46;;;;;;;2.80;1.00;;;24.80;99.90;;;;;;5092575;28;20747;-89
2022/03/04 07:59:13;;;;;;;3.65;0.90;;;24.60;99.90;;;;;;5088517;28;20730;-91
2022/03/04 08:01:40;;;;;;;3.40;0.90;;;24.50;99.90;;;;;;5091191;28;20379;-90
2022/03/04 08:04:08;;;;;;;3.08;1.20;;;24.30;99.90;;;;;;5091725;28;20453;-86
2022/03/04 08:06:41;;;;;;;3.67;1.00;;;24.30;99.90;;;;;;5091327;28;20411;-89
2022/03/04 08:09:08;;;;;;;3.97;1.00;;;24.20;99.90;;;;;;5092149;28;20724;-88
2022/03/04 08:11:35;;;;;;;4.45;1.27;;;24.20;99.90;;;;;;5092886;28;20455;-86
2022/03/04 08:14:02;;;;;;;3.65;1.08;;;24.10;99.90;;;;;;5092406;28;20377;-88
2022/03/04 08:16:29;;;;;;;5.00;1.10;;;24.10;99.90;;;;;;5091845;28;20411;-89
2022/03/04 08:18:56;;;;;;;4.20;1.13;;;24.00;99.90;;;;;;5093129;28;20405;-89
2022/03/04 08:21:25;;;;;;;4.85;1.20;;;23.90;99.90;;;;;;5090730;28;20478;-91
2022/03/04 08:23:52;;;;;;;4.18;1.20;;;23.90;99.90;;;;;;5091837;28;20368;-88
2022/03/04 08:26:20;;;;;;;3.28;1.20;;;23.90;99.90;;;;;;5091887;28;20365;-89
2022/03/04 08:28:47;;;;;;;4.80;1.42;;;23.80;99.90;;;;;;5091699;28;20400;-87
2022/03/04 08:31:14;;;;;;;6.45;1.33;;;23.80;99.90;;;;;;5091367;28;20425;-87
2022/03/04 08:33:43;;;;;;;5.30;1.40;;;23.80;99.90;;;;;;5091425;28;20850;-88
2022/03/04 08:36:11;;;;;;;6.50;1.33;;;23.70;99.90;;;;;;5092251;28;20786;-87
2022/03/04 08:38:39;;;;;;;6.05;1.40;;;23.70;99.90;;;;;;5091149;28;20384;-87
2022/03/04 08:41:06;;;;;;;4.97;1.33;;;23.70;99.90;;;;;;5091478;28;20392;-86
2022/03/04 08:43:34;;;;;;;5.25;1.33;;;23.70;99.90;;;;;;5089652;28;20418;-88
2022/03/04 08:46:03;;;;;;;6.35;1.40;;;23.70;99.90;;;;;;5091365;28;20376;-94
2022/03/04 08:48:30;;;;;;;5.07;1.35;;;23.60;99.90;;;;;;5091504;28;20397;-89
2022/03/04 08:50:57;;;;;;;5.05;1.30;;;23.50;99.90;;;;;;5091589;28;20922;-92
2022/03/04 08:53:24;;;;;;;4.38;1.20;;;23.50;99.90;;;;;;5090751;28;20486;-89
2022/03/04 08:55:51;;;;;;;5.47;1.20;;;23.40;99.90;;;;;;5090898;28;20486;-89
2022/03/04 08:58:18;;;;;;;6.07;1.27;;;23.40;99.90;;;;;;5090750;28;20384;-89
2022/03/04 09:00:45;;;;;;;4.53;1.15;;;23.30;99.90;;;;;;5090708;28;20777;-91
2022/03/04 09:03:13;;;;;;;4.88;1.30;;;23.30;99.90;;;;;;5091313;28;20429;-90
2022/03/04 09:05:40;;;;;;;3.88;1.13;;;23.20;99.90;;;;;;5092787;28;20379;-91
2022/03/04 09:08:07;;;;;;;4.68;1.20;;;23.10;99.90;;;;;;5091809;28;20376;-91
2022/03/04 09:10:34;;;;;;;4.90;1.20;;;23.10;99.90;;;;;;5091374;28;20452;-93
2022/03/04 09:13:01;;;;;;;4.53;1.20;;;23.00;99.90;;;;;;5094212;28;20405;-93
2022/03/04 09:15:28;;;;;;;4.33;1.03;;;23.00;99.90;;;;;;5094461;28;20381;-87
2022/03/04 09:17:55;;;;;;;4.00;1.05;;;22.90;99.90;;;;;;5092749;28;20528;-88
2022/03/04 09:20:22;;;;;;;5.97;1.13;;;22.80;99.90;;;;;;5092741;28;20381;-86
2022/03/04 09:22:49;;;;;;;5.72;1.45;;;22.70;99.90;;;;;;5093306;28;20411;-88
2022/03/04 09:25:16;;;;;;;6.15;1.20;;;22.60;99.90;;;;;;5092150;28;20368;-87
2022/03/04 09:27:46;;;;;;;6.32;1.45;;;22.60;99.90;;;;;;5090765;28;20384;-88
2022/03/04 09:30:14;;;;;;;4.82;1.35;;;22.50;99.90;;;;;;5090739;28;20412;-87
2022/03/04 09:32:41;;;;;;;4.75;1.30;;;22.40;99.90;;;;;;5089287;28;20377;-87
2022/03/04 09:35:08;;;;;;;6.10;1.40;;;22.40;99.90;;;;;;5090506;28;20411;-90
2022/03/04 09:37:35;;;;;;;5.10;1.20;;;22.30;99.90;;;;;;5090760;28;20376;-86
2022/03/04 09:40:05;;;;;;;5.70;1.40;;;22.30;99.90;;;;;;5090833;28;20377;-87
2022/03/04 09:42:33;;;;;;;6.90;1.40;;;22.30;99.90;;;;;;5090486;28;20400;-87
2022/03/04 09:45:01;;;;;;;5.18;1.40;;;22.20;99.90;;;;;;5089916;28;20425;-89
2022/03/04 09:47:28;;;;;;;4.60;1.48;;;22.20;99.90;;;;;;5090319;28;20903;-88
2022/03/04 09:49:57;;;;;;;6.63;1.40;;;22.20;99.90;;;;;;5089638;28;20380;-89
2022/03/04 09:52:25;;;;;;;4.70;1.30;;;22.10;99.90;;;;;;5089864;28;20377;-88
2022/03/04 09:54:53;;;;;;;8.32;1.48;;;22.10;99.90;;;;;;5089997;28;20549;-87
2022/03/04 09:57:21;;;;;;;7.25;1.40;;;22.00;99.90;;;;;;5090438;28;20392;-87
2022/03/04 09:59:48;;;;;;;6.03;1.50;;;22.10;99.90;;;;;;5088722;28;20505;-89
2022/03/04 10:02:16;;;;;;;7.70;1.60;;;22.00;99.90;;;;;;5089759;28;20365;-87
2022/03/04 10:04:43;;;;;;;7.53;1.42;;;22.10;99.90;;;;;;5089924;28;20381;-87
2022/03/04 10:07:16;;;;;;;6.97;1.50;;;22.20;99.90;;;;;;5089500;28;20379;-86
2022/03/04 10:09:47;;;;;;;9.18;1.58;;;22.20;99.90;;;;;;5089717;28;20507;-89
2022/03/04 10:12:17;;;;;;;5.95;1.45;;;22.30;99.90;;;;;;5088614;28;20456;-91
2022/03/04 10:15:00;;;;;;;7.75;1.75;;;22.30;99.90;;;;;;5089432;28;20449;-86
2022/03/04 10:17:28;;;;;;;6.43;1.30;;;22.30;99.90;;;;;;5089184;28;20365;-88
2022/03/04 10:19:57;;;;;;;5.40;1.30;;;22.30;99.90;;;;;;5089493;28;20404;-85
2022/03/04 10:22:33;;;;;;;8.65;1.90;;;22.30;99.90;;;;;;5089141;28;20856;-90
2022/03/04 10:25:01;;;;;;;7.07;1.80;;;22.30;99.90;;;;;;5089506;28;20941;-92
2022/03/04 10:27:34;;;;;;;8.73;1.88;;;22.30;99.90;;;;;;5089468;28;20364;-88
2022/03/04 10:30:03;;;;;;;8.05;1.60;;;22.30;99.90;;;;;;5087986;28;20368;-90
2022/03/04 10:32:32;;;;;;;5.75;1.60;;;22.30;99.90;;;;;;5088348;28;20464;-88
2022/03/04 10:35:08;;;;;;;7.47;1.70;;;22.40;99.90;;;;;;5089981;28;20376;-91
2022/03/04 10:37:48;;;;;;;5.00;1.30;;;22.40;99.90;;;;;;5088402;28;20380;-92
2022/03/04 10:40:21;;;;;;;7.47;1.50;;;22.40;99.90;;;;;;5089604;28;20467;-88
2022/03/04 10:42:53;;;;;;;6.38;1.50;;;22.40;99.90;;;;;;5090000;28;20378;-91
2022/03/04 10:45:36;;;;;;;6.60;1.40;;;22.40;99.90;;;;;;5088907;28;20377;-89
2022/03/04 10:48:11;;;;;;;5.55;1.40;;;22.50;99.90;;;;;;5088822;28;20380;-91
2022/03/04 10:50:43;;;;;;;5.55;1.40;;;22.40;99.90;;;;;;5089058;28;20379;-86
2022/03/04 10:53:12;;;;;;;6.00;1.43;;;22.50;99.90;;;;;;5088863;28;20463;-90
2022/03/04 10:55:50;;;;;;;5.65;1.50;;;22.40;99.90;;;;;;5089391;28;20742;-92
2022/03/04 10:58:25;;;;;;;5.20;1.50;;;22.40;99.90;;;;;;5089406;28;20409;-91
2022/03/04 11:00:53;;;;;;;4.65;1.70;;;22.40;99.90;;;;;;5089607;28;20377;-88
2022/03/04 11:03:27;;;;;;;6.30;2.03;;;22.40;99.90;;;;;;5090057;28;20828;-89
2022/03/04 11:05:59;;;;;;;6.55;2.00;;;22.40;99.90;;;;;;5093971;28;20447;-88
2022/03/04 11:08:26;;;;;;;4.55;2.08;;;22.40;99.90;;;;;;5099761;28;20392;-89
2022/03/04 11:10:55;;;;;;;7.18;2.25;;;22.40;99.90;;;;;;5091534;28;20377;-90
2022/03/04 11:13:23;;;;;;;5.45;2.10;;;22.40;99.90;;;;;;5089195;28;20364;-88
2022/03/04 11:15:53;;;;;;;6.78;2.50;;;22.40;99.90;;;;;;5087547;28;20376;-91
2022/03/04 11:18:22;;;;;;;5.40;2.30;;;22.40;99.90;;;;;;5089533;28;20356;-87
2022/03/04 11:20:53;;;;;;;6.60;2.30;;;22.50;99.90;;;;;;5088990;28;20890;-89
2022/03/04 11:23:32;;;;;;;5.07;2.50;;;22.50;99.90;;;;;;5087385;28;20885;-88
2022/03/04 11:26:01;;;;;;;6.15;2.33;;;22.50;99.90;;;;;;5089521;28;20372;-91
2022/03/04 11:28:38;;;;;;;7.10;2.38;;;22.50;99.90;;;;;;5089052;28;20424;-87
2022/03/04 11:31:07;;;;;;;5.47;2.40;;;22.50;99.90;;;;;;5089400;28;20364;-91
2022/03/04 11:33:41;;;;;;;5.65;2.40;;;22.50;99.90;;;;;;5088387;28;20423;-88
2022/03/04 11:36:25;;;;;;;6.00;2.38;;;22.40;99.90;;;;;;5089881;28;20455;-92
2022/03/04 11:38:53;;;;;;;7.32;2.33;;;22.40;99.90;;;;;;5088916;28;20824;-89
2022/03/04 11:41:25;;;;;;;5.13;2.30;;;22.30;99.90;;;;;;5089142;28;20376;-88
2022/03/04 11:43:58;;;;;;;7.85;2.35;;;22.30;99.90;;;;;;5091592;28;20400;-89
2022/03/04 11:46:29;;;;;;;6.00;2.20;;;22.30;99.90;;;;;;5092024;28;20414;-88
2022/03/04 11:49:30;;;;;;;7.45;2.40;;;22.30;99.90;;;;;;5089481;28;20868;-91
2022/03/04 11:52:12;;;;;;;4.75;2.40;;;22.30;99.90;;;;;;5093190;28;20399;-88
2022/03/04 11:55:06;;;;;;;6.38;2.20;;;22.30;99.90;;;;;;5091082;28;20400;-90
2022/03/04 11:57:38;;;;;;;5.88;2.30;;;22.20;99.90;;;;;;5091678;28;20460;-90
2022/03/04 12:00:14;;;;;;;5.97;2.42;;;22.20;99.90;;;;;;5096565;28;20399;-94
2022/03/04 12:02:54;;;;;;;6.25;2.50;;;22.20;99.90;;;;;;5096608;28;20447;-92
2022/03/04 12:05:23;;;;;;;7.18;2.47;;;22.20;99.90;;;;;;5093138;28;20369;-90
2022/03/04 12:07:57;;;;;;;5.73;2.47;;;22.20;99.90;;;;;;5092992;28;20380;-88
2022/03/04 12:10:28;;;;;;;6.53;2.67;;;22.20;99.90;;;;;;5093324;28;20372;-91
2022/03/04 12:13:06;;;;;;;7.77;2.77;;;22.20;99.90;;;;;;5092303;28;20364;-86
2022/03/04 12:15:38;;;;;;;7.47;2.58;;;22.20;99.90;;;;;;5092379;28;20387;-86
2022/03/04 12:18:25;;;;;;;7.68;2.75;;;22.20;99.90;;;;;;5090610;28;20430;-86
2022/03/04 12:20:59;;;;;;;8.25;2.90;;;22.20;99.90;;;;;;5092140;28;20377;-86
2022/03/04 12:23:45;;;;;;;7.88;2.90;;;22.20;99.90;;;;;;5091800;28;20364;-87
2022/03/04 12:26:24;;;;;;;7.25;2.75;;;22.10;99.90;;;;;;5091985;28;20840;-86
2022/03/04 12:28:53;;;;;;;7.10;2.95;;;22.10;99.90;;;;;;5090565;28;20508;-87
2022/03/04 12:31:26;;;;;;;8.37;2.80;;;22.10;99.90;;;;;;5091462;28;20444;-88
2022/03/04 12:33:59;;;;;;;7.85;2.95;;;22.10;99.90;;;;;;5091443;28;20384;-87
2022/03/04 12:36:28;;;;;;;6.03;2.80;;;22.10;99.90;;;;;;5092179;28;20755;-88
2022/03/04 12:38:56;;;;;;;10.20;3.33;;;22.00;99.90;;;;;;5091354;28;20381;-87
2022/03/04 12:41:29;;;;;;;8.40;2.90;;;21.90;99.90;;;;;;5091909;28;20840;-87
2022/03/04 12:43:59;;;;;;;9.73;3.70;;;21.80;99.90;;;;;;5091669;28;20404;-88
2022/03/04 12:46:29;;;;;;;7.93;3.57;;;21.90;99.90;;;;;;5093073;28;20421;-87
2022/03/04 12:48:57;;;;;;;11.43;3.90;;;21.80;99.90;;;;;;5093654;28;20396;-87
2022/03/04 12:51:32;;;;;;;11.48;4.28;;;21.70;99.90;;;;;;5092646;28;20365;-92
2022/03/04 12:54:30;;;;;;;10.65;4.75;;;21.80;99.90;;;;;;5090227;28;20480;-87
2022/03/04 12:56:59;;;;;;;14.25;4.93;;;21.70;99.90;;;;;;5089920;28;20856;-86